Time;durP1;ratioP1;P1;durP2;ratioP2;P2;SDS_P1;SDS_P2;PMS_P1;PMS_P2;Temp;Humidity;BMP_temperature;BMP_pressure;BME280_temperature;BME280_humidity;BME280_pressure;Samples;Min_cycle;Max_cycle;Signal;HPM_P1;HPM_P2
2021/12/28 00:00:57;;;;;;;18.93;10.57;;;-0.40;96.30;;;;;;4999537;28;20200;-79
2021/12/28 00:03:22;;;;;;;11.07;7.10;;;-0.50;96.30;;;;;;5017154;28;20420;-79
2021/12/28 00:05:48;;;;;;;13.77;9.27;;;-0.50;96.30;;;;;;4999310;28;20408;-79
2021/12/28 00:08:13;;;;;;;11.40;6.47;;;-0.40;96.30;;;;;;5016812;28;20235;-79
2021/12/28 00:10:39;;;;;;;19.23;8.30;;;-0.40;96.30;;;;;;4999053;28;20307;-79
2021/12/28 00:13:05;;;;;;;15.47;9.83;;;-0.40;96.30;;;;;;4999016;28;20592;-79
2021/12/28 00:15:35;;;;;;;22.00;8.53;;;-0.40;96.30;;;;;;5017266;28;20416;-79
2021/12/28 00:18:02;;;;;;;11.90;8.20;;;-0.40;96.30;;;;;;4999175;28;20200;-79
2021/12/28 00:20:49;;;;;;;13.47;7.47;;;-0.40;96.30;;;;;;4999283;28;20465;-79
2021/12/28 00:23:18;;;;;;;12.83;8.47;;;-0.40;96.30;;;;;;4999375;28;20408;-79
2021/12/28 00:25:46;;;;;;;12.93;8.30;;;-0.40;96.30;;;;;;5016538;28;20898;-79
2021/12/28 00:28:12;;;;;;;15.57;9.03;;;-0.40;96.30;;;;;;5016846;28;20950;-79
2021/12/28 00:30:37;;;;;;;15.80;8.93;;;-0.40;96.30;;;;;;4999043;28;20415;-79
2021/12/28 00:33:04;;;;;;;14.03;8.07;;;-0.40;96.30;;;;;;4998953;28;20204;-79
2021/12/28 00:35:41;;;;;;;18.17;9.03;;;-0.30;96.30;;;;;;4999312;28;20185;-79
2021/12/28 00:38:09;;;;;;;8.53;5.40;;;-0.40;96.30;;;;;;5016674;28;20447;-79
2021/12/28 00:45:46;;;;;;;12.90;8.40;;;-0.40;96.30;;;;;;5448297;23;20530;-79
2021/12/28 00:48:13;;;;;;;13.40;7.97;;;-0.40;96.30;;;;;;4997843;28;20420;-79
2021/12/28 00:50:39;;;;;;;15.17;9.27;;;-0.50;96.30;;;;;;4980759;28;20452;-80
2021/12/28 00:53:05;;;;;;;15.67;9.77;;;-0.50;96.30;;;;;;4978767;28;20416;-79
2021/12/28 00:55:31;;;;;;;15.90;9.47;;;-0.60;96.30;;;;;;4978293;28;20424;-79
2021/12/28 00:57:56;;;;;;;17.53;10.87;;;-0.60;96.30;;;;;;4996314;28;20448;-80
2021/12/28 05:02:10;;;;;;;19.13;9.93;;;-0.50;96.30;;;;;;5129996;23;20526;-80
2021/12/28 05:04:35;;;;;;;15.27;9.67;;;-0.50;96.30;;;;;;4941349;29;20420;-80
2021/12/28 05:07:01;;;;;;;14.90;9.80;;;-0.50;96.30;;;;;;4958340;29;20192;-79
2021/12/28 05:09:26;;;;;;;14.87;7.93;;;-0.50;96.30;;;;;;4959753;29;20177;-79
2021/12/28 05:11:51;;;;;;;9.17;6.40;;;-0.60;96.30;;;;;;4963312;29;20242;-79
2021/12/28 05:14:18;;;;;;;12.87;8.63;;;-0.50;96.30;;;;;;4954943;29;20206;-79
2021/12/28 05:16:44;;;;;;;13.60;8.53;;;-0.50;96.30;;;;;;4940654;29;20629;-79
2021/12/28 05:19:09;;;;;;;15.30;9.73;;;-0.50;96.30;;;;;;4941187;29;20418;-78
2021/12/28 05:39:01;;;;;;;16.37;9.30;;;-0.60;96.30;;;;;;4954435;28;20560;-79
2021/12/28 05:41:27;;;;;;;10.93;8.00;;;-0.60;96.30;;;;;;4959497;28;20433;-79
2021/12/28 05:43:53;;;;;;;14.67;9.13;;;-0.60;96.30;;;;;;4958551;28;20500;-79
2021/12/28 05:46:18;;;;;;;16.20;10.00;;;-0.60;96.30;;;;;;4974809;28;20186;-79
2021/12/28 05:48:44;;;;;;;12.90;7.90;;;-0.60;96.30;;;;;;4957803;28;20781;-79
2021/12/28 05:51:10;;;;;;;10.90;7.10;;;-0.50;96.30;;;;;;4957682;28;20662;-79
2021/12/28 05:53:36;;;;;;;11.77;7.20;;;-0.40;96.30;;;;;;4974355;28;20175;-79
2021/12/28 05:56:02;;;;;;;9.17;6.97;;;-0.40;96.30;;;;;;4973626;28;20229;-78
2021/12/28 05:58:27;;;;;;;9.10;6.50;;;-0.20;96.30;;;;;;4956564;28;20239;-78
2021/12/28 06:00:53;;;;;;;9.07;7.07;;;-0.20;96.30;;;;;;4956672;28;20197;-78
2021/12/28 06:03:18;;;;;;;12.57;7.00;;;-0.20;96.30;;;;;;4973882;28;20248;-79
2021/12/28 06:05:44;;;;;;;9.47;6.57;;;-0.30;96.30;;;;;;4958541;28;20617;-79
2021/12/28 06:08:09;;;;;;;11.33;6.70;;;-0.30;96.30;;;;;;4974182;28;20182;-79
2021/12/28 06:10:35;;;;;;;10.43;6.60;;;-0.30;96.30;;;;;;4957272;28;20198;-79
2021/12/28 06:13:00;;;;;;;9.10;7.07;;;-0.30;96.30;;;;;;4975761;28;20653;-79
2021/12/28 06:15:26;;;;;;;7.40;5.93;;;-0.30;96.30;;;;;;4957132;28;20184;-79
2021/12/28 06:17:51;;;;;;;11.50;6.70;;;-0.30;96.30;;;;;;4956158;28;20662;-79
2021/12/28 06:20:17;;;;;;;6.20;4.43;;;-0.30;96.30;;;;;;4956618;28;20175;-79
2021/12/28 06:22:42;;;;;;;9.27;6.07;;;-0.30;96.30;;;;;;4956517;28;20186;-79
2021/12/28 06:25:08;;;;;;;7.70;6.27;;;-0.20;96.30;;;;;;4956585;28;20604;-79
2021/12/28 06:27:34;;;;;;;7.73;5.27;;;-0.20;96.30;;;;;;4973434;28;20650;-79
2021/12/28 06:29:59;;;;;;;9.43;5.93;;;-0.20;96.30;;;;;;4956625;28;20270;-79
2021/12/28 06:32:24;;;;;;;6.63;4.87;;;-0.20;96.30;;;;;;4956382;28;20209;-79
2021/12/28 06:34:50;;;;;;;8.33;5.40;;;-0.30;96.30;;;;;;4973576;28;20269;-79
2021/12/28 06:37:16;;;;;;;13.17;8.10;;;-0.30;96.30;;;;;;4972993;28;20233;-79
2021/12/28 06:39:41;;;;;;;8.13;5.90;;;-0.40;96.30;;;;;;4955994;28;20664;-79
2021/12/28 06:42:07;;;;;;;10.90;6.47;;;-0.40;96.30;;;;;;4973612;28;20198;-79
2021/12/28 06:44:32;;;;;;;8.57;5.93;;;-0.40;96.30;;;;;;4956278;28;20170;-79
2021/12/28 06:46:58;;;;;;;13.40;7.47;;;-0.50;96.30;;;;;;4956074;28;20190;-79
2021/12/28 06:49:23;;;;;;;16.40;7.73;;;-0.50;96.30;;;;;;4972884;28;20209;-80
2021/12/28 06:51:49;;;;;;;7.67;5.80;;;-0.60;96.30;;;;;;4973639;28;20564;-80
2021/12/28 06:54:15;;;;;;;9.63;6.07;;;-0.60;96.30;;;;;;4973454;28;20190;-79
2021/12/28 06:56:41;;;;;;;8.93;6.23;;;-0.60;96.30;;;;;;4972850;28;20198;-79
2021/12/28 06:59:06;;;;;;;6.17;4.60;;;-0.60;96.30;;;;;;4956041;28;20213;-79
2021/12/28 07:01:32;;;;;;;8.03;5.70;;;-0.50;96.30;;;;;;4955683;28;20543;-79
2021/12/28 07:03:57;;;;;;;9.23;5.47;;;-0.60;96.30;;;;;;4955746;28;20306;-79
2021/12/28 07:06:24;;;;;;;14.93;7.93;;;-0.60;96.30;;;;;;4955137;28;20188;-79
2021/12/28 07:08:50;;;;;;;9.40;6.00;;;-0.70;96.30;;;;;;4972995;28;20167;-79
2021/12/28 07:11:16;;;;;;;8.03;4.93;;;-0.70;96.30;;;;;;4955514;28;20433;-79
2021/12/28 07:13:42;;;;;;;9.20;6.30;;;-0.70;96.30;;;;;;4955340;28;20932;-79
2021/12/28 07:16:08;;;;;;;10.10;7.20;;;-0.70;96.30;;;;;;4954983;28;20414;-79
2021/12/28 07:18:33;;;;;;;6.73;4.63;;;-0.90;96.30;;;;;;4955571;28;20270;-78
2021/12/28 07:21:00;;;;;;;7.37;5.53;;;-0.90;96.30;;;;;;4959240;28;20260;-79
2021/12/28 07:23:26;;;;;;;8.77;5.63;;;-0.90;96.30;;;;;;4959126;28;20205;-79
2021/12/28 07:25:53;;;;;;;9.00;5.93;;;-1.00;96.30;;;;;;4958440;28;20429;-79
2021/12/28 07:28:19;;;;;;;6.40;3.90;;;-0.90;96.30;;;;;;4976034;28;20500;-79
2021/12/28 07:30:45;;;;;;;11.80;5.23;;;-0.90;96.30;;;;;;4958825;28;20532;-79
2021/12/28 07:33:10;;;;;;;13.73;6.73;;;-0.90;96.30;;;;;;4976014;28;20484;-79
2021/12/28 07:35:36;;;;;;;13.93;7.63;;;-1.00;96.30;;;;;;4958551;28;20181;-79
2021/12/28 07:38:01;;;;;;;9.60;5.50;;;-1.00;96.30;;;;;;4968013;28;20644;-80
2021/12/28 07:40:27;;;;;;;9.63;6.40;;;-1.00;96.30;;;;;;4966572;28;20284;-79
2021/12/28 07:42:53;;;;;;;9.90;5.97;;;-1.00;96.30;;;;;;4962017;28;20650;-79
2021/12/28 07:45:19;;;;;;;8.00;6.00;;;-1.10;96.30;;;;;;4973523;28;20545;-80
2021/12/28 07:47:45;;;;;;;13.03;8.03;;;-1.10;96.30;;;;;;4967104;28;20446;-80
2021/12/28 07:50:12;;;;;;;19.43;7.77;;;-1.00;96.30;;;;;;4941667;29;20269;-80
2021/12/28 07:52:38;;;;;;;11.77;7.30;;;-1.00;96.30;;;;;;4957646;29;20623;-80
2021/12/28 07:55:06;;;;;;;15.03;8.83;;;-1.10;96.30;;;;;;4940446;29;20429;-80
2021/12/28 07:57:32;;;;;;;20.27;11.50;;;-1.00;96.30;;;;;;4957616;29;20198;-78
2021/12/28 07:59:57;;;;;;;11.90;8.37;;;-1.00;96.30;;;;;;4950410;28;20473;-80
2021/12/28 08:02:23;;;;;;;12.83;7.00;;;-1.00;96.30;;;;;;4959357;28;20207;-80
2021/12/28 08:04:49;;;;;;;10.90;6.73;;;-1.00;96.30;;;;;;4976715;28;20186;-79
2021/12/28 08:07:14;;;;;;;5.50;4.77;;;-1.00;96.30;;;;;;4976048;28;20690;-80
2021/12/28 08:09:40;;;;;;;10.43;5.73;;;-0.90;96.30;;;;;;4959133;28;20182;-80
2021/12/28 08:12:06;;;;;;;12.87;8.10;;;-0.80;96.30;;;;;;4976254;28;20194;-81
2021/12/28 08:14:31;;;;;;;13.20;7.07;;;-0.80;96.30;;;;;;4959041;28;20192;-81
2021/12/28 08:16:57;;;;;;;13.40;6.80;;;-0.70;96.30;;;;;;4975378;28;20540;-80
2021/12/28 08:19:22;;;;;;;8.07;5.93;;;-0.70;96.30;;;;;;4972945;28;20528;-82
2021/12/28 08:21:48;;;;;;;10.93;6.10;;;-0.60;96.30;;;;;;4940374;29;20663;-82
2021/12/28 08:24:13;;;;;;;15.00;7.70;;;-0.50;96.30;;;;;;4957482;29;20179;-81
2021/12/28 08:26:39;;;;;;;11.10;6.90;;;-0.50;96.30;;;;;;4971309;28;20191;-81
2021/12/28 08:29:05;;;;;;;14.37;8.77;;;-0.50;96.30;;;;;;4957798;29;20599;-82
2021/12/28 08:31:30;;;;;;;8.13;5.67;;;-0.40;96.30;;;;;;4971559;28;20198;-79
2021/12/28 08:33:56;;;;;;;15.57;7.20;;;-0.40;96.30;;;;;;4972183;28;20274;-80
2021/12/28 08:36:21;;;;;;;10.60;5.63;;;-0.30;96.30;;;;;;4972190;28;20182;-80
2021/12/28 08:38:47;;;;;;;11.70;6.80;;;-0.30;96.30;;;;;;4975050;28;20197;-80
2021/12/28 08:41:13;;;;;;;9.77;6.17;;;-0.30;96.30;;;;;;4959326;28;20198;-80
2021/12/28 08:43:39;;;;;;;8.33;6.13;;;-0.30;96.30;;;;;;4957163;28;20190;-80
2021/12/28 08:46:05;;;;;;;9.80;7.07;;;-0.20;96.30;;;;;;4975730;28;20640;-82
2021/12/28 08:48:30;;;;;;;8.83;6.50;;;-0.20;96.30;;;;;;4976072;28;20178;-81
2021/12/28 08:50:56;;;;;;;11.23;6.50;;;-0.10;96.30;;;;;;4955733;28;20441;-80
2021/12/28 08:53:22;;;;;;;11.37;6.50;;;0.00;96.30;;;;;;4975045;28;20205;-79
2021/12/28 08:55:48;;;;;;;8.37;5.40;;;0.00;96.30;;;;;;4957172;28;20188;-80
2021/12/28 08:58:15;;;;;;;10.60;7.20;;;0.10;96.30;;;;;;4957774;28;20210;-79
2021/12/28 09:00:41;;;;;;;9.10;6.00;;;0.20;96.30;;;;;;4957656;28;20445;-80
2021/12/28 09:03:07;;;;;;;10.60;7.03;;;0.20;96.30;;;;;;4957744;28;20418;-79
2021/12/28 09:05:33;;;;;;;7.83;5.20;;;0.30;96.30;;;;;;4974757;28;20543;-80
2021/12/28 09:08:01;;;;;;;9.53;6.70;;;0.40;96.30;;;;;;4974466;28;20181;-81
2021/12/28 09:10:27;;;;;;;6.30;5.37;;;0.40;96.30;;;;;;4957691;28;20429;-79
2021/12/28 09:12:54;;;;;;;13.17;5.67;;;0.40;96.30;;;;;;4974999;28;20425;-80
2021/12/28 09:15:20;;;;;;;9.03;5.07;;;0.30;96.30;;;;;;4966349;28;20524;-82
2021/12/28 09:17:45;;;;;;;6.57;3.97;;;0.40;96.30;;;;;;4959976;28;20548;-81
2021/12/28 09:20:16;;;;;;;8.90;5.80;;;0.40;96.30;;;;;;4957564;28;20178;-79
2021/12/28 09:22:42;;;;;;;6.40;4.10;;;0.30;96.30;;;;;;4975313;28;20638;-80
2021/12/28 09:25:08;;;;;;;6.27;4.13;;;0.30;96.30;;;;;;4959242;28;20516;-79
2021/12/28 09:27:34;;;;;;;11.80;6.23;;;0.40;96.30;;;;;;4959341;28;20473;-80
2021/12/28 09:30:00;;;;;;;12.33;7.47;;;0.40;96.30;;;;;;4958723;28;20526;-79
2021/12/28 09:32:25;;;;;;;12.43;6.13;;;0.30;96.30;;;;;;4962673;28;20213;-80
2021/12/28 09:34:53;;;;;;;13.27;8.20;;;0.30;96.30;;;;;;4969856;28;20682;-80
2021/12/28 09:37:19;;;;;;;12.70;8.23;;;0.30;96.30;;;;;;4956668;28;20248;-80
2021/12/28 09:39:45;;;;;;;11.77;7.60;;;0.30;96.30;;;;;;4964435;28;20465;-81
2021/12/28 09:42:12;;;;;;;9.60;6.50;;;0.40;96.30;;;;;;4956165;28;20202;-73
2021/12/28 09:44:37;;;;;;;8.07;5.10;;;0.40;96.30;;;;;;4956591;28;20429;-74
2021/12/28 09:47:04;;;;;;;9.40;4.83;;;0.50;96.30;;;;;;4973820;28;20410;-73
2021/12/28 09:49:29;;;;;;;10.80;6.37;;;0.50;96.30;;;;;;4973519;28;20178;-73
2021/12/28 09:51:56;;;;;;;9.43;6.30;;;0.50;96.30;;;;;;4973969;28;20484;-72
2021/12/28 09:54:24;;;;;;;13.50;6.73;;;0.60;96.30;;;;;;4973847;28;20202;-73
2021/12/28 09:56:50;;;;;;;9.97;6.53;;;0.70;96.30;;;;;;4973077;28;20838;-73
2021/12/28 09:59:16;;;;;;;8.07;5.07;;;0.80;96.30;;;;;;4973684;28;20422;-72
2021/12/28 10:01:42;;;;;;;11.50;7.50;;;0.80;96.30;;;;;;4973624;28;20198;-73
2021/12/28 10:04:07;;;;;;;9.53;6.23;;;0.90;96.30;;;;;;4973686;28;20925;-72
2021/12/28 10:06:33;;;;;;;9.80;6.57;;;1.00;96.30;;;;;;4973447;28;20182;-72
2021/12/28 10:09:03;;;;;;;7.60;5.60;;;1.00;96.30;;;;;;4973753;28;20629;-72
2021/12/28 10:11:48;;;;;;;6.27;5.03;;;1.10;96.30;;;;;;4973521;28;20198;-72
2021/12/28 10:14:17;;;;;;;9.90;6.00;;;1.20;96.30;;;;;;4973469;28;20536;-72
2021/12/28 10:16:49;;;;;;;9.03;6.00;;;1.20;96.30;;;;;;4973300;28;20468;-71
2021/12/28 10:19:35;;;;;;;12.93;6.57;;;1.00;96.30;;;;;;4973469;28;20488;-71
2021/12/28 10:22:20;;;;;;;9.23;5.90;;;1.00;96.30;;;;;;4973617;28;20418;-71
2021/12/28 10:24:46;;;;;;;14.17;6.80;;;1.00;96.30;;;;;;4973678;28;20909;-71
2021/12/28 10:27:16;;;;;;;11.00;6.07;;;1.00;96.30;;;;;;4955863;28;20501;-71
2021/12/28 10:29:42;;;;;;;9.77;6.10;;;1.10;96.30;;;;;;4973377;28;20170;-71
2021/12/28 10:32:18;;;;;;;13.37;7.93;;;1.10;96.30;;;;;;4973241;28;20509;-71
2021/12/28 10:34:49;;;;;;;10.00;4.30;;;1.00;96.30;;;;;;4973154;28;20421;-71
2021/12/28 10:37:22;;;;;;;5.97;4.10;;;1.00;96.30;;;;;;4972966;28;20519;-72
2021/12/28 10:39:51;;;;;;;9.33;5.50;;;1.60;96.30;;;;;;4955859;28;20524;-70
2021/12/28 10:42:40;;;;;;;9.50;6.47;;;2.20;96.30;;;;;;4973183;28;20434;-71
2021/12/28 10:45:10;;;;;;;5.50;4.40;;;2.60;96.30;;;;;;4973305;28;20524;-71
2021/12/28 10:47:35;;;;;;;9.63;5.00;;;2.60;96.30;;;;;;4972728;28;20445;-71
2021/12/28 10:50:18;;;;;;;5.90;4.37;;;2.90;96.30;;;;;;4973072;28;20422;-70
2021/12/28 10:52:49;;;;;;;8.27;4.93;;;3.00;96.30;;;;;;4973706;28;20237;-70
2021/12/28 10:55:22;;;;;;;10.20;5.37;;;2.80;96.30;;;;;;4977200;28;20441;-70
2021/12/28 10:57:48;;;;;;;8.63;5.90;;;2.70;96.30;;;;;;4976746;28;20808;-71
2021/12/28 11:00:33;;;;;;;7.40;4.57;;;2.70;96.30;;;;;;4976851;28;20413;-71
2021/12/28 11:03:28;;;;;;;12.27;5.43;;;3.00;96.30;;;;;;4976903;28;20170;-71
2021/12/28 11:05:55;;;;;;;7.83;5.07;;;3.20;96.30;;;;;;4976721;28;20409;-72
2021/12/28 11:08:23;;;;;;;6.90;4.70;;;3.30;96.30;;;;;;4976838;28;20753;-71
2021/12/28 11:10:52;;;;;;;7.83;5.70;;;3.70;96.30;;;;;;4976636;28;20517;-71
2021/12/28 11:13:24;;;;;;;8.17;5.80;;;4.20;96.30;;;;;;4976776;28;20417;-70
2021/12/28 11:15:50;;;;;;;11.23;6.03;;;4.80;96.30;;;;;;4976957;28;20463;-71
2021/12/28 11:18:34;;;;;;;6.97;4.30;;;4.90;96.30;;;;;;4976747;28;20465;-70
2021/12/28 11:39:11;;;;;;;9.30;6.20;;;4.00;96.30;;;;;;5217886;23;20478;-70
2021/12/28 11:41:38;;;;;;;4.10;3.67;;;3.60;96.30;;;;;;4956706;29;20445;-70
2021/12/28 11:44:04;;;;;;;7.13;4.63;;;3.30;96.30;;;;;;4956775;29;20418;-70
2021/12/28 11:46:30;;;;;;;6.53;4.73;;;2.90;96.30;;;;;;4956512;29;20949;-70
2021/12/28 11:48:56;;;;;;;7.53;5.10;;;2.70;96.30;;;;;;4939370;29;20450;-70
2021/12/28 11:51:24;;;;;;;9.90;6.00;;;2.40;96.30;;;;;;4932637;29;20555;-68
2021/12/28 11:53:52;;;;;;;8.70;5.50;;;2.40;96.30;;;;;;4956864;29;20172;-68
2021/12/28 11:56:23;;;;;;;10.17;6.07;;;2.40;96.30;;;;;;4956457;29;20410;-68
2021/12/28 11:58:55;;;;;;;9.07;5.80;;;2.30;96.30;;;;;;4956552;29;20461;-68
2021/12/28 12:01:58;;;;;;;9.70;5.33;;;2.20;96.30;;;;;;4956582;29;20419;-68
2021/12/28 12:04:29;;;;;;;8.03;6.00;;;2.20;96.30;;;;;;4955898;28;20903;-71
2021/12/28 12:07:19;;;;;;;8.53;5.10;;;2.00;96.30;;;;;;4956138;29;20418;-68
2021/12/28 12:09:50;;;;;;;10.30;5.60;;;2.00;96.30;;;;;;4952410;29;20415;-68
2021/12/28 12:12:25;;;;;;;8.80;5.90;;;1.90;96.30;;;;;;4939318;29;20450;-68
2021/12/28 12:14:54;;;;;;;7.30;5.37;;;1.80;96.30;;;;;;4956360;29;20925;-68
2021/12/28 12:17:28;;;;;;;7.43;5.27;;;1.90;96.30;;;;;;4956024;29;20505;-68
2021/12/28 12:19:59;;;;;;;5.83;4.87;;;1.90;96.30;;;;;;4956271;29;20408;-70
2021/12/28 12:22:30;;;;;;;8.13;4.13;;;1.90;96.30;;;;;;4938890;29;20467;-69
2021/12/28 12:25:03;;;;;;;8.13;5.97;;;1.90;96.30;;;;;;4956172;29;20411;-70
2021/12/28 12:27:45;;;;;;;5.30;4.10;;;2.10;96.30;;;;;;4955830;29;20439;-69
2021/12/28 12:30:23;;;;;;;6.47;4.63;;;2.40;96.30;;;;;;4946611;29;20451;-70
2021/12/28 12:33:09;;;;;;;9.03;4.70;;;2.40;96.30;;;;;;4919767;29;20419;-69
2021/12/28 12:35:58;;;;;;;7.33;5.40;;;2.60;96.30;;;;;;4936610;29;20515;-68
2021/12/28 12:38:28;;;;;;;7.03;5.00;;;2.60;96.30;;;;;;4936430;29;20494;-68
2021/12/28 12:41:14;;;;;;;5.47;3.23;;;2.50;96.30;;;;;;4936842;29;20434;-68
2021/12/28 12:43:42;;;;;;;6.40;3.47;;;2.70;96.30;;;;;;4936670;29;20407;-69
2021/12/28 12:46:11;;;;;;;6.57;4.50;;;2.90;96.30;;;;;;4936447;29;20472;-68
2021/12/28 12:48:36;;;;;;;7.30;4.27;;;2.90;96.30;;;;;;4936435;29;20415;-69
2021/12/28 12:51:23;;;;;;;6.00;4.87;;;2.80;96.30;;;;;;4919516;29;20582;-69
2021/12/28 12:53:53;;;;;;;6.63;4.03;;;2.70;96.30;;;;;;4936453;29;20226;-68
2021/12/28 12:56:24;;;;;;;6.13;3.33;;;2.70;96.30;;;;;;4936172;29;20812;-68
2021/12/28 12:58:51;;;;;;;2.33;2.13;;;2.80;96.30;;;;;;4936332;29;20852;-70
2021/12/28 13:01:42;;;;;;;3.73;2.77;;;2.90;96.30;;;;;;4936244;29;20503;-69
2021/12/28 13:04:26;;;;;;;2.13;1.83;;;3.00;96.30;;;;;;4936195;29;20418;-69
2021/12/28 13:07:07;;;;;;;3.20;2.10;;;3.00;96.30;;;;;;4936100;29;20412;-69
2021/12/28 13:09:34;;;;;;;3.00;2.07;;;3.10;96.30;;;;;;4944187;29;20434;-69
2021/12/28 13:12:02;;;;;;;3.40;1.23;;;3.10;96.30;;;;;;4955131;29;20961;-70
2021/12/28 13:14:29;;;;;;;2.93;2.10;;;3.00;96.30;;;;;;4955271;29;20427;-69
2021/12/28 13:17:03;;;;;;;3.33;2.90;;;3.20;96.30;;;;;;4953955;28;20962;-69
2021/12/28 13:19:30;;;;;;;2.03;1.53;;;3.20;96.30;;;;;;4955087;29;20428;-68
2021/12/28 13:22:02;;;;;;;3.37;2.30;;;3.10;96.30;;;;;;4937895;29;20461;-69
2021/12/28 13:24:29;;;;;;;1.70;1.60;;;3.10;96.30;;;;;;4955025;29;20895;-69
2021/12/28 13:26:59;;;;;;;2.57;1.57;;;2.90;96.30;;;;;;4945386;29;20431;-69
2021/12/28 13:29:31;;;;;;;2.73;1.80;;;2.80;96.30;;;;;;4935951;29;20423;-69
2021/12/28 13:32:13;;;;;;;2.00;1.70;;;2.70;96.30;;;;;;4935656;29;20487;-69
2021/12/28 13:35:08;;;;;;;3.80;2.57;;;2.70;96.30;;;;;;4918605;29;20427;-69
2021/12/28 13:37:54;;;;;;;3.20;2.23;;;2.60;96.30;;;;;;4935336;29;20450;-69
2021/12/28 13:40:28;;;;;;;3.77;2.50;;;2.50;96.30;;;;;;4935563;29;20400;-69
2021/12/28 13:42:59;;;;;;;3.07;2.20;;;2.40;96.30;;;;;;4935670;29;20404;-69
2021/12/28 13:45:38;;;;;;;2.07;1.80;;;2.30;96.30;;;;;;4935624;29;20490;-69
2021/12/28 13:48:29;;;;;;;2.00;1.67;;;2.30;96.30;;;;;;4935392;29;20418;-69
2021/12/28 13:51:06;;;;;;;6.73;4.93;;;2.30;96.30;;;;;;4935442;29;20454;-69
2021/12/28 13:53:34;;;;;;;2.90;2.40;;;2.30;96.30;;;;;;4918351;29;20419;-71
2021/12/28 13:56:03;;;;;;;2.70;2.33;;;2.20;96.30;;;;;;4935280;29;20916;-70
2021/12/28 13:58:38;;;;;;;2.67;2.10;;;2.00;96.30;;;;;;4935353;29;21074;-69
2021/12/28 14:01:09;;;;;;;6.40;2.93;;;1.90;96.30;;;;;;4935196;29;20959;-71
2021/12/28 14:03:35;;;;;;;3.30;2.40;;;1.80;96.30;;;;;;4918191;29;20426;-69
2021/12/28 14:06:02;;;;;;;3.23;2.60;;;1.70;96.30;;;;;;4918132;29;20902;-69
2021/12/28 14:08:30;;;;;;;5.77;3.97;;;1.60;96.30;;;;;;4918203;29;20431;-71
2021/12/28 14:10:58;;;;;;;3.50;2.80;;;1.60;96.30;;;;;;4954035;29;20440;-69
2021/12/28 14:13:25;;;;;;;4.03;3.27;;;1.60;96.30;;;;;;4954300;29;20426;-70
2021/12/28 14:15:58;;;;;;;3.10;2.40;;;1.50;96.30;;;;;;4954126;29;20419;-69
2021/12/28 14:18:31;;;;;;;23.63;11.10;;;1.50;96.30;;;;;;4954134;29;20466;-71
2021/12/28 14:21:22;;;;;;;55.53;29.30;;;1.40;96.30;;;;;;4954173;29;20930;-69
2021/12/28 14:24:09;;;;;;;9.93;5.93;;;1.60;96.30;;;;;;4954220;29;20920;-69
2021/12/28 14:26:40;;;;;;;8.37;6.10;;;1.90;96.30;;;;;;4953968;29;20941;-71
2021/12/28 14:29:07;;;;;;;4.30;3.50;;;2.10;96.30;;;;;;4953854;28;20414;-69
2021/12/28 14:31:44;;;;;;;7.40;5.03;;;2.20;96.30;;;;;;4954036;29;20422;-69
2021/12/28 14:34:13;;;;;;;7.40;4.80;;;2.40;96.30;;;;;;4936584;29;20433;-69
2021/12/28 14:36:44;;;;;;;4.30;2.83;;;2.60;96.30;;;;;;4934850;29;20412;-69
2021/12/28 14:39:20;;;;;;;7.67;4.70;;;2.80;96.30;;;;;;4935363;29;20455;-69
2021/12/28 14:41:49;;;;;;;5.20;3.00;;;2.80;96.30;;;;;;4934729;29;20435;-69
2021/12/28 14:44:29;;;;;;;3.53;2.33;;;2.90;96.30;;;;;;4934880;29;20963;-69
2021/12/28 14:46:55;;;;;;;2.57;1.63;;;2.90;96.30;;;;;;4934566;29;20911;-69
2021/12/28 14:49:33;;;;;;;6.33;3.90;;;3.00;96.30;;;;;;4934553;29;20415;-69
2021/12/28 14:52:10;;;;;;;8.93;5.37;;;3.00;96.30;;;;;;4917484;29;20199;-69
2021/12/28 14:54:36;;;;;;;5.00;3.47;;;3.00;96.30;;;;;;4935056;29;20419;-70
2021/12/28 14:57:01;;;;;;;12.07;7.57;;;3.10;96.30;;;;;;4934539;29;20510;-69
2021/12/28 14:59:27;;;;;;;3.77;2.67;;;3.00;96.30;;;;;;4934782;29;20195;-69
2021/12/28 15:01:55;;;;;;;2.30;1.80;;;2.90;96.30;;;;;;4934493;29;20196;-69
2021/12/28 15:04:21;;;;;;;5.43;1.50;;;2.90;96.30;;;;;;4934481;29;20659;-69
2021/12/28 15:06:53;;;;;;;2.30;1.67;;;2.90;96.30;;;;;;4934356;29;20419;-69
2021/12/28 15:09:22;;;;;;;4.43;2.00;;;3.00;96.30;;;;;;4940650;29;20175;-70
2021/12/28 15:11:47;;;;;;;3.80;1.70;;;2.90;96.30;;;;;;4953592;29;20437;-70
2021/12/28 15:14:13;;;;;;;3.00;2.20;;;2.90;96.30;;;;;;4953647;29;20911;-69
2021/12/28 15:16:38;;;;;;;4.13;2.70;;;2.90;96.30;;;;;;4953302;29;20178;-70
2021/12/28 15:19:04;;;;;;;3.10;2.23;;;2.90;96.30;;;;;;4953593;29;20179;-70
2021/12/28 15:21:29;;;;;;;2.73;1.90;;;3.00;96.30;;;;;;4953603;29;20242;-70
2021/12/28 15:23:57;;;;;;;1.70;1.43;;;3.00;96.30;;;;;;4953783;29;20671;-69
2021/12/28 15:26:23;;;;;;;2.50;2.00;;;3.00;96.30;;;;;;4953021;29;20179;-70
2021/12/28 15:28:49;;;;;;;3.03;2.03;;;3.00;96.30;;;;;;4953391;29;20426;-70
2021/12/28 15:31:14;;;;;;;4.30;2.60;;;3.00;96.30;;;;;;4953413;29;20453;-70
2021/12/28 15:33:39;;;;;;;1.50;1.40;;;3.00;96.30;;;;;;4953236;29;20185;-69
2021/12/28 15:36:07;;;;;;;1.53;1.33;;;2.90;96.30;;;;;;4935968;29;20267;-70
2021/12/28 15:38:32;;;;;;;2.43;1.60;;;3.00;96.30;;;;;;4953141;29;20346;-69
2021/12/28 15:40:58;;;;;;;1.80;1.60;;;2.90;96.30;;;;;;4955598;28;20509;-70
2021/12/28 15:43:23;;;;;;;1.87;1.40;;;2.90;96.30;;;;;;4956977;29;20560;-70
2021/12/28 15:45:52;;;;;;;3.73;2.57;;;2.80;96.30;;;;;;4956641;29;20179;-71
2021/12/28 15:48:18;;;;;;;2.40;1.40;;;2.80;96.30;;;;;;4957013;29;20199;-69
2021/12/28 15:50:43;;;;;;;1.20;1.00;;;2.70;96.30;;;;;;4956863;29;20434;-71
2021/12/28 15:53:09;;;;;;;1.33;1.20;;;2.70;96.30;;;;;;4956818;29;20237;-70
2021/12/28 15:55:34;;;;;;;2.60;1.40;;;2.60;96.30;;;;;;4956638;29;20179;-70
2021/12/28 15:58:00;;;;;;;1.73;1.40;;;2.60;96.30;;;;;;4956472;29;20725;-70
2021/12/28 16:00:25;;;;;;;4.03;2.13;;;2.50;96.30;;;;;;4939286;29;20629;-69
2021/12/28 16:02:51;;;;;;;2.13;1.30;;;2.40;96.30;;;;;;4939429;29;20175;-71
2021/12/28 16:05:17;;;;;;;3.90;1.67;;;2.30;96.30;;;;;;4956592;29;20203;-69
2021/12/28 16:07:42;;;;;;;3.23;2.50;;;2.20;96.30;;;;;;4956446;29;20183;-69
2021/12/28 16:10:09;;;;;;;10.27;3.60;;;2.10;96.30;;;;;;4943675;29;20188;-70
2021/12/28 16:12:35;;;;;;;2.70;1.60;;;2.00;96.30;;;;;;4920161;29;20203;-70
2021/12/28 16:15:01;;;;;;;7.50;3.03;;;1.90;96.30;;;;;;4937353;29;20475;-71
2021/12/28 16:17:26;;;;;;;5.30;2.10;;;1.80;96.30;;;;;;4936910;29;20474;-72
2021/12/28 16:19:52;;;;;;;8.50;2.47;;;1.70;96.30;;;;;;4937311;29;20422;-70
2021/12/28 16:22:19;;;;;;;8.43;4.10;;;1.60;96.30;;;;;;4920003;29;20686;-69
2021/12/28 16:24:45;;;;;;;8.53;4.20;;;1.20;96.30;;;;;;4937198;29;20227;-70
2021/12/28 16:27:12;;;;;;;5.50;2.93;;;1.00;96.30;;;;;;4919660;29;21011;-70
2021/12/28 16:29:38;;;;;;;4.30;2.70;;;1.00;96.30;;;;;;4937022;29;20423;-69
2021/12/28 16:32:05;;;;;;;4.87;2.83;;;0.90;96.30;;;;;;4936662;29;20963;-69
2021/12/28 16:34:31;;;;;;;3.80;2.70;;;0.80;96.30;;;;;;4936862;29;20428;-69
2021/12/28 16:36:57;;;;;;;5.07;3.20;;;0.80;96.30;;;;;;4936532;29;20481;-71
2021/12/28 16:39:23;;;;;;;2.23;1.93;;;0.80;96.30;;;;;;4936677;29;20576;-69
2021/12/28 16:41:49;;;;;;;4.20;3.20;;;0.80;96.30;;;;;;4936629;29;20428;-69
2021/12/28 16:44:14;;;;;;;8.37;3.53;;;0.80;96.30;;;;;;4936718;29;20628;-70
2021/12/28 16:46:40;;;;;;;4.77;3.43;;;0.80;96.30;;;;;;4936534;29;20655;-70
2021/12/28 16:49:06;;;;;;;7.57;4.50;;;0.80;96.30;;;;;;4936560;29;20188;-70
2021/12/28 16:51:33;;;;;;;9.23;5.17;;;0.80;96.30;;;;;;4936403;29;20219;-70
2021/12/28 16:53:59;;;;;;;3.13;2.20;;;0.90;96.30;;;;;;4936549;29;20419;-70
2021/12/28 16:56:25;;;;;;;3.40;2.17;;;0.90;96.30;;;;;;4936470;29;20404;-70
2021/12/28 16:58:55;;;;;;;4.33;3.50;;;1.00;96.30;;;;;;4936451;29;20739;-70
2021/12/28 17:01:22;;;;;;;5.87;3.23;;;1.00;96.30;;;;;;4936490;29;20998;-70
2021/12/28 17:03:47;;;;;;;3.50;2.10;;;1.00;96.30;;;;;;4936313;29;20411;-70
2021/12/28 17:06:13;;;;;;;3.43;1.70;;;1.00;96.30;;;;;;4936213;29;20555;-69
2021/12/28 17:08:39;;;;;;;1.50;1.40;;;1.10;96.30;;;;;;4936194;29;20191;-69
2021/12/28 17:11:05;;;;;;;2.73;1.70;;;1.20;96.30;;;;;;4919078;29;20215;-70
2021/12/28 17:13:31;;;;;;;4.40;2.53;;;1.20;96.30;;;;;;4936287;29;20415;-70
2021/12/28 17:15:57;;;;;;;3.97;2.90;;;1.20;96.30;;;;;;4919268;29;20515;-70
2021/12/28 17:18:26;;;;;;;1.30;1.20;;;1.20;96.30;;;;;;4936735;29;20495;-72
2021/12/28 17:31:14;;;;;;;3.70;2.70;;;1.20;96.30;;;;;;5975927;23;20450;-70
2021/12/28 17:33:40;;;;;;;4.37;2.40;;;1.20;96.30;;;;;;4915356;29;20869;-69
2021/12/28 17:36:06;;;;;;;3.20;2.67;;;1.20;96.30;;;;;;4915155;29;20523;-69
2021/12/28 17:38:32;;;;;;;3.83;2.57;;;1.20;96.30;;;;;;4916710;29;20231;-70
2021/12/28 17:40:58;;;;;;;4.80;2.80;;;1.20;96.30;;;;;;4916609;29;20475;-70
2021/12/28 17:43:25;;;;;;;4.70;3.23;;;1.20;96.30;;;;;;4916739;29;20176;-70
2021/12/28 17:45:52;;;;;;;4.27;2.63;;;1.20;96.30;;;;;;4916499;29;20412;-69
2021/12/28 17:48:19;;;;;;;3.83;2.60;;;1.20;96.30;;;;;;4916606;29;20532;-71
2021/12/28 17:50:45;;;;;;;10.93;4.13;;;1.20;96.30;;;;;;4916529;29;20432;-70